sensor_id;sensor_type;location;lat;lon;timestamp;P1;durP1;ratioP1;P2;durP2;ratioP2
52210;SDS011;38179;52.756;6.906;2023-11-21T00:01:37;47.22;;;26.67;;
52210;SDS011;38179;52.756;6.906;2023-11-21T00:04:03;40.00;;;25.83;;
52210;SDS011;38179;52.756;6.906;2023-11-21T00:06:29;50.42;;;26.23;;
52210;SDS011;38179;52.756;6.906;2023-11-21T00:08:55;45.47;;;27.35;;
52210;SDS011;38179;52.756;6.906;2023-11-21T00:11:22;41.90;;;26.98;;
52210;SDS011;38179;52.756;6.906;2023-11-21T00:13:47;40.92;;;25.63;;
52210;SDS011;38179;52.756;6.906;2023-11-21T00:16:13;44.67;;;27.52;;
52210;SDS011;38179;52.756;6.906;2023-11-21T00:18:39;48.53;;;26.55;;
52210;SDS011;38179;52.756;6.906;2023-11-21T00:21:05;50.25;;;26.70;;
52210;SDS011;38179;52.756;6.906;2023-11-21T00:23:31;44.75;;;26.60;;
52210;SDS011;38179;52.756;6.906;2023-11-21T00:25:57;50.15;;;26.73;;
52210;SDS011;38179;52.756;6.906;2023-11-21T00:28:23;45.38;;;27.77;;
52210;SDS011;38179;52.756;6.906;2023-11-21T00:30:50;52.58;;;27.75;;
52210;SDS011;38179;52.756;6.906;2023-11-21T00:33:16;46.72;;;26.90;;
52210;SDS011;38179;52.756;6.906;2023-11-21T00:35:41;44.60;;;26.00;;
52210;SDS011;38179;52.756;6.906;2023-11-21T00:38:07;48.00;;;26.42;;
52210;SDS011;38179;52.756;6.906;2023-11-21T00:40:33;44.97;;;26.92;;
52210;SDS011;38179;52.756;6.906;2023-11-21T00:42:59;51.08;;;28.05;;
52210;SDS011;38179;52.756;6.906;2023-11-21T00:45:26;43.15;;;27.40;;
52210;SDS011;38179;52.756;6.906;2023-11-21T00:47:52;46.20;;;26.77;;
52210;SDS011;38179;52.756;6.906;2023-11-21T00:50:17;46.47;;;26.02;;
52210;SDS011;38179;52.756;6.906;2023-11-21T00:52:47;44.63;;;26.60;;
52210;SDS011;38179;52.756;6.906;2023-11-21T00:55:13;45.47;;;25.98;;
52210;SDS011;38179;52.756;6.906;2023-11-21T00:57:39;50.53;;;27.42;;
52210;SDS011;38179;52.756;6.906;2023-11-21T01:00:05;40.90;;;25.38;;
52210;SDS011;38179;52.756;6.906;2023-11-21T01:02:33;49.00;;;27.42;;
52210;SDS011;38179;52.756;6.906;2023-11-21T01:05:00;43.83;;;26.63;;
52210;SDS011;38179;52.756;6.906;2023-11-21T01:07:27;42.10;;;26.90;;
52210;SDS011;38179;52.756;6.906;2023-11-21T01:09:52;46.58;;;25.98;;
52210;SDS011;38179;52.756;6.906;2023-11-21T01:12:18;47.85;;;27.15;;
52210;SDS011;38179;52.756;6.906;2023-11-21T01:14:44;44.55;;;27.08;;
52210;SDS011;38179;52.756;6.906;2023-11-21T01:17:10;44.08;;;26.48;;
52210;SDS011;38179;52.756;6.906;2023-11-21T01:19:36;47.38;;;26.42;;
52210;SDS011;38179;52.756;6.906;2023-11-21T01:22:02;50.33;;;28.35;;
52210;SDS011;38179;52.756;6.906;2023-11-21T01:24:29;48.15;;;25.77;;
52210;SDS011;38179;52.756;6.906;2023-11-21T01:26:55;48.47;;;28.17;;
52210;SDS011;38179;52.756;6.906;2023-11-21T01:29:20;47.60;;;28.08;;
52210;SDS011;38179;52.756;6.906;2023-11-21T01:31:46;43.85;;;26.75;;
52210;SDS011;38179;52.756;6.906;2023-11-21T01:34:12;44.17;;;26.67;;
52210;SDS011;38179;52.756;6.906;2023-11-21T01:36:39;50.33;;;26.80;;
52210;SDS011;38179;52.756;6.906;2023-11-21T01:39:05;44.17;;;26.58;;
52210;SDS011;38179;52.756;6.906;2023-11-21T01:41:36;44.30;;;27.02;;
52210;SDS011;38179;52.756;6.906;2023-11-21T01:44:02;44.72;;;27.73;;
52210;SDS011;38179;52.756;6.906;2023-11-21T01:46:28;47.78;;;28.35;;
52210;SDS011;38179;52.756;6.906;2023-11-21T01:48:54;43.03;;;27.65;;
52210;SDS011;38179;52.756;6.906;2023-11-21T01:51:20;55.72;;;27.52;;
52210;SDS011;38179;52.756;6.906;2023-11-21T01:53:46;43.25;;;27.48;;
52210;SDS011;38179;52.756;6.906;2023-11-21T01:56:12;44.47;;;27.15;;
52210;SDS011;38179;52.756;6.906;2023-11-21T01:58:39;46.13;;;27.23;;
52210;SDS011;38179;52.756;6.906;2023-11-21T02:01:06;44.17;;;26.45;;
52210;SDS011;38179;52.756;6.906;2023-11-21T02:03:32;46.97;;;26.50;;
52210;SDS011;38179;52.756;6.906;2023-11-21T02:05:58;41.72;;;25.90;;
52210;SDS011;38179;52.756;6.906;2023-11-21T02:08:24;51.58;;;26.42;;
52210;SDS011;38179;52.756;6.906;2023-11-21T02:10:50;44.50;;;26.88;;
52210;SDS011;38179;52.756;6.906;2023-11-21T02:13:15;44.92;;;27.00;;
52210;SDS011;38179;52.756;6.906;2023-11-21T02:15:41;48.42;;;27.20;;
52210;SDS011;38179;52.756;6.906;2023-11-21T02:18:07;45.03;;;25.10;;
52210;SDS011;38179;52.756;6.906;2023-11-21T02:20:35;45.90;;;25.75;;
52210;SDS011;38179;52.756;6.906;2023-11-21T02:23:04;43.72;;;25.48;;
52210;SDS011;38179;52.756;6.906;2023-11-21T02:25:30;42.42;;;24.92;;
52210;SDS011;38179;52.756;6.906;2023-11-21T02:27:58;49.30;;;26.15;;
52210;SDS011;38179;52.756;6.906;2023-11-21T02:30:26;47.05;;;26.02;;
52210;SDS011;38179;52.756;6.906;2023-11-21T02:32:57;45.55;;;24.15;;
52210;SDS011;38179;52.756;6.906;2023-11-21T02:35:23;42.05;;;24.45;;
52210;SDS011;38179;52.756;6.906;2023-11-21T02:37:51;36.65;;;24.05;;
52210;SDS011;38179;52.756;6.906;2023-11-21T02:40:17;42.15;;;24.63;;
52210;SDS011;38179;52.756;6.906;2023-11-21T02:42:45;44.33;;;24.70;;
52210;SDS011;38179;52.756;6.906;2023-11-21T02:45:13;35.50;;;23.40;;
52210;SDS011;38179;52.756;6.906;2023-11-21T02:47:42;42.10;;;24.92;;
52210;SDS011;38179;52.756;6.906;2023-11-21T02:50:08;39.10;;;24.02;;
52210;SDS011;38179;52.756;6.906;2023-11-21T02:52:35;47.10;;;24.83;;
52210;SDS011;38179;52.756;6.906;2023-11-21T02:55:01;34.45;;;23.15;;
52210;SDS011;38179;52.756;6.906;2023-11-21T02:57:27;40.30;;;25.15;;
52210;SDS011;38179;52.756;6.906;2023-11-21T02:59:54;44.10;;;24.40;;
52210;SDS011;38179;52.756;6.906;2023-11-21T03:02:20;42.92;;;24.33;;
52210;SDS011;38179;52.756;6.906;2023-11-21T03:04:46;43.72;;;24.08;;
52210;SDS011;38179;52.756;6.906;2023-11-21T03:07:14;45.83;;;23.83;;
52210;SDS011;38179;52.756;6.906;2023-11-21T03:09:40;42.03;;;24.90;;
52210;SDS011;38179;52.756;6.906;2023-11-21T03:12:07;43.78;;;24.58;;
52210;SDS011;38179;52.756;6.906;2023-11-21T03:14:34;37.30;;;23.02;;
52210;SDS011;38179;52.756;6.906;2023-11-21T03:17:00;39.25;;;25.55;;
52210;SDS011;38179;52.756;6.906;2023-11-21T03:19:25;46.47;;;24.85;;
52210;SDS011;38179;52.756;6.906;2023-11-21T03:21:51;46.50;;;25.85;;
52210;SDS011;38179;52.756;6.906;2023-11-21T03:24:18;43.55;;;25.88;;
52210;SDS011;38179;52.756;6.906;2023-11-21T03:26:45;39.47;;;24.83;;
52210;SDS011;38179;52.756;6.906;2023-11-21T03:29:12;40.75;;;25.27;;
52210;SDS011;38179;52.756;6.906;2023-11-21T03:31:38;49.85;;;25.58;;
52210;SDS011;38179;52.756;6.906;2023-11-21T03:34:04;45.53;;;24.65;;
52210;SDS011;38179;52.756;6.906;2023-11-21T03:36:30;36.22;;;23.98;;
52210;SDS011;38179;52.756;6.906;2023-11-21T03:38:56;38.60;;;24.58;;
52210;SDS011;38179;52.756;6.906;2023-11-21T03:41:21;34.30;;;23.20;;
52210;SDS011;38179;52.756;6.906;2023-11-21T03:43:47;32.35;;;21.85;;
52210;SDS011;38179;52.756;6.906;2023-11-21T03:46:13;32.05;;;21.83;;
52210;SDS011;38179;52.756;6.906;2023-11-21T03:48:39;33.10;;;21.10;;
52210;SDS011;38179;52.756;6.906;2023-11-21T03:51:07;31.10;;;21.20;;
52210;SDS011;38179;52.756;6.906;2023-11-21T03:53:33;34.53;;;22.08;;
52210;SDS011;38179;52.756;6.906;2023-11-21T03:56:02;37.72;;;24.15;;
52210;SDS011;38179;52.756;6.906;2023-11-21T03:58:29;38.13;;;24.40;;
52210;SDS011;38179;52.756;6.906;2023-11-21T04:00:55;40.55;;;24.90;;
52210;SDS011;38179;52.756;6.906;2023-11-21T04:03:20;35.25;;;22.83;;
52210;SDS011;38179;52.756;6.906;2023-11-21T04:05:46;42.10;;;25.08;;
52210;SDS011;38179;52.756;6.906;2023-11-21T04:08:12;39.00;;;23.48;;
52210;SDS011;38179;52.756;6.906;2023-11-21T04:10:38;45.70;;;26.08;;
52210;SDS011;38179;52.756;6.906;2023-11-21T04:13:05;40.92;;;24.15;;
52210;SDS011;38179;52.756;6.906;2023-11-21T04:15:32;39.80;;;24.17;;
52210;SDS011;38179;52.756;6.906;2023-11-21T04:17:58;37.53;;;23.80;;
52210;SDS011;38179;52.756;6.906;2023-11-21T04:20:24;31.00;;;22.67;;
52210;SDS011;38179;52.756;6.906;2023-11-21T04:22:50;30.65;;;21.17;;
52210;SDS011;38179;52.756;6.906;2023-11-21T04:25:16;33.50;;;22.20;;
52210;SDS011;38179;52.756;6.906;2023-11-21T04:27:42;32.05;;;21.23;;
52210;SDS011;38179;52.756;6.906;2023-11-21T04:30:10;31.90;;;22.70;;
52210;SDS011;38179;52.756;6.906;2023-11-21T04:32:36;32.30;;;23.55;;
52210;SDS011;38179;52.756;6.906;2023-11-21T04:35:02;34.15;;;22.85;;
52210;SDS011;38179;52.756;6.906;2023-11-21T04:37:29;32.55;;;22.40;;
52210;SDS011;38179;52.756;6.906;2023-11-21T04:39:55;37.75;;;24.30;;
52210;SDS011;38179;52.756;6.906;2023-11-21T04:42:21;37.15;;;24.08;;
52210;SDS011;38179;52.756;6.906;2023-11-21T04:44:48;34.03;;;23.70;;
52210;SDS011;38179;52.756;6.906;2023-11-21T04:47:14;31.55;;;23.60;;
52210;SDS011;38179;52.756;6.906;2023-11-21T04:49:41;36.65;;;24.38;;
52210;SDS011;38179;52.756;6.906;2023-11-21T04:52:08;40.72;;;25.15;;
52210;SDS011;38179;52.756;6.906;2023-11-21T04:54:35;38.22;;;25.30;;
52210;SDS011;38179;52.756;6.906;2023-11-21T04:57:01;43.00;;;25.65;;
52210;SDS011;38179;52.756;6.906;2023-11-21T04:59:27;45.00;;;27.67;;
52210;SDS011;38179;52.756;6.906;2023-11-21T05:01:53;45.63;;;26.95;;
52210;SDS011;38179;52.756;6.906;2023-11-21T05:04:19;43.53;;;27.17;;
52210;SDS011;38179;52.756;6.906;2023-11-21T05:06:47;45.58;;;27.90;;
52210;SDS011;38179;52.756;6.906;2023-11-21T05:09:13;43.05;;;26.15;;
52210;SDS011;38179;52.756;6.906;2023-11-21T05:11:41;47.30;;;27.58;;
52210;SDS011;38179;52.756;6.906;2023-11-21T05:14:06;46.50;;;26.95;;
52210;SDS011;38179;52.756;6.906;2023-11-21T05:16:33;43.03;;;25.35;;
52210;SDS011;38179;52.756;6.906;2023-11-21T05:19:00;39.97;;;24.92;;
52210;SDS011;38179;52.756;6.906;2023-11-21T05:21:27;40.72;;;26.13;;
52210;SDS011;38179;52.756;6.906;2023-11-21T05:23:54;46.40;;;27.17;;
52210;SDS011;38179;52.756;6.906;2023-11-21T05:26:20;44.75;;;26.65;;
52210;SDS011;38179;52.756;6.906;2023-11-21T05:28:46;42.78;;;25.13;;
52210;SDS011;38179;52.756;6.906;2023-11-21T05:31:13;44.95;;;25.90;;
52210;SDS011;38179;52.756;6.906;2023-11-21T05:33:39;46.75;;;26.13;;
52210;SDS011;38179;52.756;6.906;2023-11-21T05:36:06;46.05;;;26.55;;
52210;SDS011;38179;52.756;6.906;2023-11-21T05:38:33;42.80;;;26.52;;
52210;SDS011;38179;52.756;6.906;2023-11-21T05:41:00;46.20;;;27.20;;
52210;SDS011;38179;52.756;6.906;2023-11-21T05:43:27;44.67;;;26.30;;
52210;SDS011;38179;52.756;6.906;2023-11-21T05:45:54;38.95;;;24.30;;
52210;SDS011;38179;52.756;6.906;2023-11-21T05:48:20;43.42;;;25.90;;
52210;SDS011;38179;52.756;6.906;2023-11-21T05:50:46;44.05;;;26.23;;
52210;SDS011;38179;52.756;6.906;2023-11-21T05:53:15;45.75;;;27.17;;
52210;SDS011;38179;52.756;6.906;2023-11-21T05:55:41;44.75;;;27.17;;
52210;SDS011;38179;52.756;6.906;2023-11-21T05:58:07;46.92;;;27.08;;
52210;SDS011;38179;52.756;6.906;2023-11-21T06:00:33;42.95;;;26.83;;
52210;SDS011;38179;52.756;6.906;2023-11-21T06:03:00;36.80;;;24.52;;
52210;SDS011;38179;52.756;6.906;2023-11-21T06:05:26;37.83;;;25.15;;
52210;SDS011;38179;52.756;6.906;2023-11-21T06:07:52;46.22;;;26.08;;
52210;SDS011;38179;52.756;6.906;2023-11-21T06:10:20;44.35;;;26.52;;
52210;SDS011;38179;52.756;6.906;2023-11-21T06:12:46;42.17;;;26.10;;
52210;SDS011;38179;52.756;6.906;2023-11-21T06:15:13;43.03;;;28.08;;
52210;SDS011;38179;52.756;6.906;2023-11-21T06:17:42;46.15;;;28.38;;
52210;SDS011;38179;52.756;6.906;2023-11-21T06:20:09;42.35;;;27.42;;
52210;SDS011;38179;52.756;6.906;2023-11-21T06:22:40;39.65;;;26.38;;
52210;SDS011;38179;52.756;6.906;2023-11-21T06:25:08;43.05;;;28.13;;
52210;SDS011;38179;52.756;6.906;2023-11-21T06:27:36;46.10;;;28.23;;
52210;SDS011;38179;52.756;6.906;2023-11-21T06:30:12;51.17;;;29.40;;
52210;SDS011;38179;52.756;6.906;2023-11-21T06:32:39;56.88;;;30.63;;
52210;SDS011;38179;52.756;6.906;2023-11-21T06:35:05;41.75;;;27.17;;
52210;SDS011;38179;52.756;6.906;2023-11-21T06:37:32;43.05;;;27.63;;
52210;SDS011;38179;52.756;6.906;2023-11-21T06:39:58;47.35;;;28.45;;
52210;SDS011;38179;52.756;6.906;2023-11-21T06:42:25;42.60;;;27.80;;
52210;SDS011;38179;52.756;6.906;2023-11-21T06:44:52;37.00;;;25.80;;
52210;SDS011;38179;52.756;6.906;2023-11-21T06:47:19;45.10;;;27.75;;
52210;SDS011;38179;52.756;6.906;2023-11-21T06:49:45;38.78;;;27.23;;
52210;SDS011;38179;52.756;6.906;2023-11-21T06:52:13;42.25;;;27.98;;
52210;SDS011;38179;52.756;6.906;2023-11-21T06:54:39;42.88;;;26.85;;
52210;SDS011;38179;52.756;6.906;2023-11-21T06:57:05;45.47;;;28.17;;
52210;SDS011;38179;52.756;6.906;2023-11-21T06:59:31;49.22;;;28.75;;
52210;SDS011;38179;52.756;6.906;2023-11-21T07:01:57;49.75;;;28.85;;
52210;SDS011;38179;52.756;6.906;2023-11-21T07:04:23;45.70;;;29.90;;
52210;SDS011;38179;52.756;6.906;2023-11-21T07:06:51;48.20;;;29.17;;
52210;SDS011;38179;52.756;6.906;2023-11-21T07:09:18;49.65;;;29.58;;
52210;SDS011;38179;52.756;6.906;2023-11-21T07:11:47;43.80;;;27.85;;
52210;SDS011;38179;52.756;6.906;2023-11-21T07:14:14;47.83;;;28.80;;
52210;SDS011;38179;52.756;6.906;2023-11-21T07:16:41;44.55;;;28.65;;
52210;SDS011;38179;52.756;6.906;2023-11-21T07:19:07;41.58;;;27.77;;
52210;SDS011;38179;52.756;6.906;2023-11-21T07:21:33;45.67;;;28.52;;
52210;SDS011;38179;52.756;6.906;2023-11-21T07:24:03;45.97;;;27.25;;
52210;SDS011;38179;52.756;6.906;2023-11-21T07:26:29;47.35;;;26.90;;
52210;SDS011;38179;52.756;6.906;2023-11-21T07:28:55;42.17;;;25.92;;
52210;SDS011;38179;52.756;6.906;2023-11-21T07:31:22;39.65;;;25.77;;
52210;SDS011;38179;52.756;6.906;2023-11-21T07:33:53;39.33;;;26.25;;
52210;SDS011;38179;52.756;6.906;2023-11-21T07:36:19;38.03;;;24.70;;
52210;SDS011;38179;52.756;6.906;2023-11-21T07:38:47;37.35;;;25.17;;
52210;SDS011;38179;52.756;6.906;2023-11-21T07:41:14;36.38;;;24.75;;
52210;SDS011;38179;52.756;6.906;2023-11-21T07:43:43;43.58;;;26.65;;
52210;SDS011;38179;52.756;6.906;2023-11-21T07:46:12;38.10;;;26.08;;
52210;SDS011;38179;52.756;6.906;2023-11-21T07:48:42;36.60;;;24.70;;
52210;SDS011;38179;52.756;6.906;2023-11-21T07:51:09;38.63;;;26.30;;
52210;SDS011;38179;52.756;6.906;2023-11-21T07:53:35;41.22;;;25.38;;
52210;SDS011;38179;52.756;6.906;2023-11-21T07:56:05;37.92;;;24.60;;
52210;SDS011;38179;52.756;6.906;2023-11-21T07:58:32;40.42;;;25.52;;
52210;SDS011;38179;52.756;6.906;2023-11-21T08:01:02;40.20;;;26.00;;
52210;SDS011;38179;52.756;6.906;2023-11-21T08:03:29;35.47;;;24.73;;
52210;SDS011;38179;52.756;6.906;2023-11-21T08:05:58;39.78;;;25.70;;
52210;SDS011;38179;52.756;6.906;2023-11-21T08:08:25;40.30;;;25.20;;
52210;SDS011;38179;52.756;6.906;2023-11-21T08:10:52;39.95;;;24.42;;
52210;SDS011;38179;52.756;6.906;2023-11-21T08:13:27;36.65;;;24.00;;
52210;SDS011;38179;52.756;6.906;2023-11-21T08:15:56;39.40;;;24.40;;
52210;SDS011;38179;52.756;6.906;2023-11-21T08:18:28;39.17;;;25.00;;
52210;SDS011;38179;52.756;6.906;2023-11-21T08:20:57;39.05;;;25.27;;
52210;SDS011;38179;52.756;6.906;2023-11-21T08:23:23;41.50;;;25.88;;
52210;SDS011;38179;52.756;6.906;2023-11-21T08:25:50;36.92;;;24.45;;
52210;SDS011;38179;52.756;6.906;2023-11-21T08:28:17;40.47;;;24.73;;
52210;SDS011;38179;52.756;6.906;2023-11-21T08:30:44;54.20;;;36.25;;
52210;SDS011;38179;52.756;6.906;2023-11-21T08:33:09;47.65;;;28.92;;
52210;SDS011;38179;52.756;6.906;2023-11-21T08:35:37;44.15;;;25.17;;
52210;SDS011;38179;52.756;6.906;2023-11-21T08:38:03;35.60;;;23.88;;
52210;SDS011;38179;52.756;6.906;2023-11-21T08:40:29;36.78;;;24.05;;
52210;SDS011;38179;52.756;6.906;2023-11-21T08:42:55;38.10;;;24.83;;
52210;SDS011;38179;52.756;6.906;2023-11-21T08:45:24;41.85;;;28.98;;
52210;SDS011;38179;52.756;6.906;2023-11-21T08:47:51;37.88;;;27.00;;
52210;SDS011;38179;52.756;6.906;2023-11-21T08:50:17;41.53;;;26.92;;
52210;SDS011;38179;52.756;6.906;2023-11-21T08:52:43;49.55;;;30.60;;
52210;SDS011;38179;52.756;6.906;2023-11-21T08:55:11;41.17;;;28.00;;
52210;SDS011;38179;52.756;6.906;2023-11-21T08:57:40;43.78;;;28.45;;
52210;SDS011;38179;52.756;6.906;2023-11-21T09:00:10;34.53;;;22.75;;
52210;SDS011;38179;52.756;6.906;2023-11-21T09:02:37;41.28;;;24.88;;
52210;SDS011;38179;52.756;6.906;2023-11-21T09:05:05;36.33;;;22.20;;
52210;SDS011;38179;52.756;6.906;2023-11-21T09:07:31;42.30;;;26.48;;
52210;SDS011;38179;52.756;6.906;2023-11-21T09:09:57;36.75;;;24.52;;
52210;SDS011;38179;52.756;6.906;2023-11-21T09:12:23;43.63;;;25.58;;
52210;SDS011;38179;52.756;6.906;2023-11-21T09:14:52;46.97;;;27.10;;
52210;SDS011;38179;52.756;6.906;2023-11-21T09:17:19;42.42;;;24.30;;
52210;SDS011;38179;52.756;6.906;2023-11-21T09:19:45;48.97;;;25.42;;
52210;SDS011;38179;52.756;6.906;2023-11-21T09:22:15;45.67;;;25.58;;
52210;SDS011;38179;52.756;6.906;2023-11-21T09:24:41;46.75;;;26.80;;
52210;SDS011;38179;52.756;6.906;2023-11-21T09:27:07;46.45;;;29.73;;
52210;SDS011;38179;52.756;6.906;2023-11-21T09:29:35;52.47;;;27.80;;
52210;SDS011;38179;52.756;6.906;2023-11-21T09:32:04;49.22;;;27.65;;
52210;SDS011;38179;52.756;6.906;2023-11-21T09:34:32;44.75;;;26.35;;
52210;SDS011;38179;52.756;6.906;2023-11-21T09:37:03;53.22;;;29.20;;
52210;SDS011;38179;52.756;6.906;2023-11-21T09:39:31;45.65;;;26.90;;
52210;SDS011;38179;52.756;6.906;2023-11-21T09:42:43;46.00;;;26.77;;
52210;SDS011;38179;52.756;6.906;2023-11-21T09:45:03;45.78;;;26.05;;
52210;SDS011;38179;52.756;6.906;2023-11-21T09:47:38;43.35;;;26.45;;
52210;SDS011;38179;52.756;6.906;2023-11-21T09:50:04;46.70;;;27.08;;
52210;SDS011;38179;52.756;6.906;2023-11-21T09:55:06;41.60;;;25.40;;
52210;SDS011;38179;52.756;6.906;2023-11-21T09:57:32;40.70;;;26.00;;
52210;SDS011;38179;52.756;6.906;2023-11-21T09:59:58;35.08;;;23.13;;
52210;SDS011;38179;52.756;6.906;2023-11-21T10:02:30;34.42;;;22.13;;
52210;SDS011;38179;52.756;6.906;2023-11-21T10:05:02;31.75;;;22.50;;
52210;SDS011;38179;52.756;6.906;2023-11-21T10:07:28;35.45;;;23.27;;
52210;SDS011;38179;52.756;6.906;2023-11-21T10:09:59;32.40;;;22.50;;
52210;SDS011;38179;52.756;6.906;2023-11-21T10:12:27;35.28;;;23.83;;
52210;SDS011;38179;52.756;6.906;2023-11-21T10:14:54;31.13;;;22.70;;
52210;SDS011;38179;52.756;6.906;2023-11-21T10:17:23;30.85;;;21.38;;
52210;SDS011;38179;52.756;6.906;2023-11-21T10:19:55;31.88;;;22.05;;
52210;SDS011;38179;52.756;6.906;2023-11-21T10:22:22;32.83;;;22.30;;
52210;SDS011;38179;52.756;6.906;2023-11-21T10:24:49;30.15;;;21.63;;
52210;SDS011;38179;52.756;6.906;2023-11-21T10:27:18;29.27;;;21.38;;
52210;SDS011;38179;52.756;6.906;2023-11-21T10:29:44;28.75;;;21.70;;
52210;SDS011;38179;52.756;6.906;2023-11-21T10:32:10;28.08;;;21.33;;
52210;SDS011;38179;52.756;6.906;2023-11-21T10:34:37;27.40;;;21.15;;
52210;SDS011;38179;52.756;6.906;2023-11-21T10:37:12;29.98;;;20.90;;
52210;SDS011;38179;52.756;6.906;2023-11-21T10:39:38;28.05;;;21.17;;
52210;SDS011;38179;52.756;6.906;2023-11-21T10:42:07;28.48;;;21.75;;
52210;SDS011;38179;52.756;6.906;2023-11-21T10:44:35;30.73;;;21.92;;
52210;SDS011;38179;52.756;6.906;2023-11-21T10:47:01;25.05;;;20.45;;
52210;SDS011;38179;52.756;6.906;2023-11-21T10:49:27;32.33;;;27.27;;
52210;SDS011;38179;52.756;6.906;2023-11-21T10:51:54;26.63;;;23.77;;
52210;SDS011;38179;52.756;6.906;2023-11-21T10:54:21;23.85;;;19.65;;
52210;SDS011;38179;52.756;6.906;2023-11-21T10:56:57;21.75;;;18.48;;
52210;SDS011;38179;52.756;6.906;2023-11-21T10:59:28;18.45;;;16.45;;
52210;SDS011;38179;52.756;6.906;2023-11-21T11:01:57;17.35;;;15.55;;
52210;SDS011;38179;52.756;6.906;2023-11-21T11:04:24;19.15;;;15.77;;
52210;SDS011;38179;52.756;6.906;2023-11-21T11:06:57;16.17;;;14.48;;
52210;SDS011;38179;52.756;6.906;2023-11-21T11:09:24;17.15;;;14.93;;
52210;SDS011;38179;52.756;6.906;2023-11-21T11:11:51;16.92;;;15.05;;
52210;SDS011;38179;52.756;6.906;2023-11-21T11:14:19;17.30;;;15.20;;
52210;SDS011;38179;52.756;6.906;2023-11-21T11:16:45;16.85;;;15.15;;
52210;SDS011;38179;52.756;6.906;2023-11-21T11:19:11;19.25;;;16.90;;
52210;SDS011;38179;52.756;6.906;2023-11-21T11:30:28;18.88;;;16.90;;
52210;SDS011;38179;52.756;6.906;2023-11-21T11:38:07;17.65;;;15.68;;
52210;SDS011;38179;52.756;6.906;2023-11-21T11:40:40;20.15;;;16.38;;
52210;SDS011;38179;52.756;6.906;2023-11-21T11:43:12;17.40;;;15.40;;
52210;SDS011;38179;52.756;6.906;2023-11-21T11:45:38;18.08;;;15.23;;
52210;SDS011;38179;52.756;6.906;2023-11-21T11:48:07;16.70;;;14.93;;
52210;SDS011;38179;52.756;6.906;2023-11-21T11:50:41;16.50;;;14.50;;
52210;SDS011;38179;52.756;6.906;2023-11-21T11:53:28;15.50;;;13.90;;
52210;SDS011;38179;52.756;6.906;2023-11-21T11:58:49;14.70;;;13.15;;
52210;SDS011;38179;52.756;6.906;2023-11-21T12:01:19;16.70;;;14.93;;
52210;SDS011;38179;52.756;6.906;2023-11-21T12:04:13;17.35;;;14.57;;
52210;SDS011;38179;52.756;6.906;2023-11-21T12:06:43;16.23;;;14.50;;
52210;SDS011;38179;52.756;6.906;2023-11-21T12:09:19;16.73;;;14.85;;
52210;SDS011;38179;52.756;6.906;2023-11-21T12:11:47;16.85;;;15.05;;
52210;SDS011;38179;52.756;6.906;2023-11-21T12:14:14;16.00;;;14.32;;
52210;SDS011;38179;52.756;6.906;2023-11-21T12:16:40;16.65;;;14.85;;
52210;SDS011;38179;52.756;6.906;2023-11-21T12:19:08;16.10;;;14.40;;
52210;SDS011;38179;52.756;6.906;2023-11-21T12:21:34;16.45;;;14.57;;
52210;SDS011;38179;52.756;6.906;2023-11-21T12:24:02;16.50;;;14.38;;
52210;SDS011;38179;52.756;6.906;2023-11-21T12:26:28;18.27;;;16.38;;
52210;SDS011;38179;52.756;6.906;2023-11-21T12:28:54;16.92;;;14.73;;
52210;SDS011;38179;52.756;6.906;2023-11-21T12:31:23;19.52;;;16.27;;
52210;SDS011;38179;52.756;6.906;2023-11-21T12:36:16;16.38;;;14.68;;
52210;SDS011;38179;52.756;6.906;2023-11-21T12:38:42;15.35;;;13.57;;
52210;SDS011;38179;52.756;6.906;2023-11-21T12:41:11;16.73;;;15.02;;
52210;SDS011;38179;52.756;6.906;2023-11-21T12:43:37;17.15;;;15.30;;
52210;SDS011;38179;52.756;6.906;2023-11-21T12:46:05;17.20;;;15.23;;
52210;SDS011;38179;52.756;6.906;2023-11-21T12:48:32;18.55;;;16.65;;
52210;SDS011;38179;52.756;6.906;2023-11-21T12:50:58;17.08;;;15.23;;
52210;SDS011;38179;52.756;6.906;2023-11-21T12:53:25;15.43;;;13.80;;
52210;SDS011;38179;52.756;6.906;2023-11-21T12:55:51;17.17;;;15.38;;
52210;SDS011;38179;52.756;6.906;2023-11-21T12:58:22;15.02;;;13.43;;
52210;SDS011;38179;52.756;6.906;2023-11-21T13:00:50;16.38;;;14.68;;
52210;SDS011;38179;52.756;6.906;2023-11-21T13:03:19;15.65;;;13.85;;
52210;SDS011;38179;52.756;6.906;2023-11-21T13:05:50;16.52;;;14.82;;
52210;SDS011;38179;52.756;6.906;2023-11-21T13:08:19;15.85;;;14.25;;
52210;SDS011;38179;52.756;6.906;2023-11-21T13:10:54;16.77;;;14.50;;
52210;SDS011;38179;52.756;6.906;2023-11-21T13:13:21;16.65;;;14.90;;
52210;SDS011;38179;52.756;6.906;2023-11-21T13:15:55;17.38;;;15.25;;
52210;SDS011;38179;52.756;6.906;2023-11-21T13:18:26;17.15;;;14.90;;
52210;SDS011;38179;52.756;6.906;2023-11-21T13:20:57;17.77;;;14.77;;
52210;SDS011;38179;52.756;6.906;2023-11-21T13:23:25;17.67;;;15.75;;
52210;SDS011;38179;52.756;6.906;2023-11-21T13:25:52;15.70;;;14.07;;
52210;SDS011;38179;52.756;6.906;2023-11-21T13:28:18;16.10;;;14.40;;
52210;SDS011;38179;52.756;6.906;2023-11-21T13:30:49;17.15;;;14.82;;
52210;SDS011;38179;52.756;6.906;2023-11-21T13:33:17;18.10;;;15.35;;
52210;SDS011;38179;52.756;6.906;2023-11-21T13:35:47;17.23;;;15.10;;
52210;SDS011;38179;52.756;6.906;2023-11-21T13:38:14;16.25;;;14.55;;
52210;SDS011;38179;52.756;6.906;2023-11-21T13:40:51;16.30;;;14.60;;
52210;SDS011;38179;52.756;6.906;2023-11-21T13:43:22;15.77;;;14.18;;
52210;SDS011;38179;52.756;6.906;2023-11-21T13:45:51;18.40;;;15.05;;
52210;SDS011;38179;52.756;6.906;2023-11-21T13:48:28;16.67;;;14.88;;
52210;SDS011;38179;52.756;6.906;2023-11-21T13:51:03;17.67;;;14.10;;
52210;SDS011;38179;52.756;6.906;2023-11-21T13:53:47;16.50;;;14.70;;
52210;SDS011;38179;52.756;6.906;2023-11-21T13:56:15;16.75;;;14.95;;
52210;SDS011;38179;52.756;6.906;2023-11-21T13:58:49;16.50;;;14.80;;
52210;SDS011;38179;52.756;6.906;2023-11-21T14:01:23;18.35;;;13.52;;
52210;SDS011;38179;52.756;6.906;2023-11-21T14:03:50;18.10;;;14.32;;
52210;SDS011;38179;52.756;6.906;2023-11-21T14:06:22;19.17;;;15.05;;
52210;SDS011;38179;52.756;6.906;2023-11-21T14:08:56;17.60;;;14.15;;
52210;SDS011;38179;52.756;6.906;2023-11-21T14:11:22;16.30;;;14.65;;
52210;SDS011;38179;52.756;6.906;2023-11-21T14:13:48;17.35;;;14.98;;
52210;SDS011;38179;52.756;6.906;2023-11-21T14:16:15;17.45;;;14.90;;
52210;SDS011;38179;52.756;6.906;2023-11-21T14:18:45;16.77;;;14.90;;
52210;SDS011;38179;52.756;6.906;2023-11-21T14:21:29;18.42;;;15.85;;
52210;SDS011;38179;52.756;6.906;2023-11-21T14:23:55;22.23;;;15.88;;
52210;SDS011;38179;52.756;6.906;2023-11-21T14:26:21;17.88;;;14.73;;
52210;SDS011;38179;52.756;6.906;2023-11-21T14:28:48;21.58;;;18.83;;
52210;SDS011;38179;52.756;6.906;2023-11-21T14:31:16;45.95;;;29.83;;
52210;SDS011;38179;52.756;6.906;2023-11-21T14:33:44;18.38;;;15.82;;
52210;SDS011;38179;52.756;6.906;2023-11-21T14:36:10;17.42;;;14.93;;
52210;SDS011;38179;52.756;6.906;2023-11-21T14:38:37;18.17;;;15.02;;
52210;SDS011;38179;52.756;6.906;2023-11-21T14:41:05;20.77;;;15.95;;
52210;SDS011;38179;52.756;6.906;2023-11-21T14:43:36;17.70;;;15.40;;
52210;SDS011;38179;52.756;6.906;2023-11-21T14:46:04;15.77;;;14.18;;